createdAt,value
2019-02-21T00:02:27.745Z,14.43
2019-02-21T00:04:56.582Z,20.17
2019-02-21T00:07:25.630Z,13.30
2019-02-21T00:09:54.518Z,17.03
2019-02-21T00:12:23.398Z,23.40
2019-02-21T00:14:52.314Z,16.57
2019-02-21T00:17:21.131Z,18.80
2019-02-21T00:19:50.095Z,19.63
2019-02-21T00:22:19.042Z,18.57
2019-02-21T00:24:47.867Z,19.87
2019-02-21T00:27:16.700Z,18.33
2019-02-21T00:29:45.594Z,17.07
2019-02-21T00:32:14.432Z,18.63
2019-02-21T00:34:43.237Z,21.20
2019-02-21T00:37:12.098Z,18.97
2019-02-21T00:39:41.017Z,23.33
2019-02-21T00:42:09.885Z,18.07
2019-02-21T00:44:38.748Z,20.17
2019-02-21T00:47:07.642Z,19.90
2019-02-21T00:49:36.689Z,19.40
2019-02-21T00:52:05.527Z,21.20
2019-02-21T00:54:34.359Z,20.77
2019-02-21T00:57:03.261Z,19.00
2019-02-21T00:59:32.074Z,17.70
2019-02-21T01:02:00.974Z,18.00
2019-02-21T01:04:29.882Z,23.27
2019-02-21T01:06:58.785Z,23.50
2019-02-21T01:09:27.658Z,21.33
2019-02-21T01:11:56.607Z,21.33
2019-02-21T01:14:25.619Z,20.63
2019-02-21T01:16:54.435Z,19.27
2019-02-21T01:19:23.509Z,19.80
2019-02-21T01:21:52.395Z,17.83
2019-02-21T01:24:21.365Z,18.40
2019-02-21T01:26:50.262Z,18.33
2019-02-21T01:29:19.271Z,18.73
2019-02-21T01:31:48.168Z,17.63
2019-02-21T01:34:17.282Z,20.23
2019-02-21T01:36:46.465Z,17.23
2019-02-21T01:39:15.289Z,17.50
2019-02-21T01:41:44.161Z,19.40
2019-02-21T01:44:12.990Z,18.03
2019-02-21T01:46:41.980Z,20.30
2019-02-21T01:49:11.197Z,20.70
2019-02-21T01:51:40.233Z,22.47
2019-02-21T01:54:09.042Z,21.17
2019-02-21T01:56:37.902Z,21.10
2019-02-21T01:59:07.498Z,23.57
2019-02-21T02:01:36.404Z,19.23
2019-02-21T02:04:05.305Z,20.60
2019-02-21T02:06:34.201Z,18.90
2019-02-21T02:09:04.791Z,19.70
2019-02-21T02:11:33.750Z,21.93
2019-02-21T02:14:02.605Z,18.53
2019-02-21T02:16:31.530Z,19.37
2019-02-21T02:19:00.361Z,19.80
2019-02-21T02:21:29.162Z,20.63
2019-02-21T02:23:58.081Z,17.77
2019-02-21T02:26:26.954Z,17.53
2019-02-21T02:28:55.855Z,16.10
2019-02-21T02:31:24.804Z,20.27
2019-02-21T02:33:53.651Z,19.40
2019-02-21T02:36:22.622Z,19.83
2019-02-21T02:38:51.460Z,21.63
2019-02-21T02:41:20.342Z,21.70
2019-02-21T02:43:49.189Z,19.70
2019-02-21T02:46:18.176Z,19.60
2019-02-21T02:48:47.057Z,20.30
2019-02-21T02:51:16.061Z,19.67
2019-02-21T02:53:44.891Z,17.73
2019-02-21T02:56:13.929Z,20.67
2019-02-21T02:58:45.351Z,19.13
2019-02-21T03:01:13.295Z,19.87
2019-02-21T03:03:42.169Z,21.97
2019-02-21T03:06:11.007Z,22.43
2019-02-21T03:08:39.856Z,19.07
2019-02-21T03:11:08.732Z,19.97
2019-02-21T03:13:37.681Z,21.17
2019-02-21T03:16:06.577Z,21.20
2019-02-21T03:18:35.392Z,21.40
2019-02-21T03:21:04.384Z,21.87
2019-02-21T03:23:33.222Z,24.07
2019-02-21T03:26:02.024Z,22.33
2019-02-21T03:28:30.890Z,21.57
2019-02-21T03:30:59.817Z,24.60
2019-02-21T03:33:28.765Z,22.03
2019-02-21T03:35:57.610Z,26.07
2019-02-21T03:38:26.446Z,25.40
2019-02-21T03:40:55.397Z,27.27
2019-02-21T03:43:24.369Z,28.63
2019-02-21T03:45:53.193Z,29.30
2019-02-21T03:48:22.063Z,25.63
2019-02-21T03:50:50.918Z,23.73
2019-02-21T03:53:19.802Z,23.77
2019-02-21T03:55:48.798Z,37.87
2019-02-21T03:58:17.748Z,26.70
2019-02-21T04:00:46.690Z,25.60
2019-02-21T04:03:15.795Z,27.53
2019-02-21T04:05:44.799Z,23.53
2019-02-21T04:08:13.671Z,25.30
2019-02-21T04:10:42.598Z,30.07
2019-02-21T04:13:11.493Z,28.43
2019-02-21T04:15:40.516Z,22.83
2019-02-21T04:18:09.649Z,27.30
2019-02-21T04:20:38.473Z,27.47
2019-02-21T04:23:07.305Z,28.57
2019-02-21T04:25:36.130Z,27.00
2019-02-21T04:28:05.041Z,25.50
2019-02-21T04:30:33.980Z,29.73
2019-02-21T04:33:03.015Z,28.77
2019-02-21T04:35:32.274Z,30.10
2019-02-21T04:38:01.107Z,28.63
2019-02-21T04:40:30.093Z,29.47
2019-02-21T04:42:59.110Z,29.87
2019-02-21T04:45:27.997Z,27.83
2019-02-21T04:47:56.858Z,26.67
2019-02-21T04:50:25.718Z,26.47
2019-02-21T04:52:54.544Z,28.50
2019-02-21T04:55:23.457Z,30.30
2019-02-21T04:57:52.380Z,27.10
2019-02-21T05:00:21.292Z,27.33
2019-02-21T05:02:50.225Z,29.37
2019-02-21T05:05:19.128Z,31.07
2019-02-21T05:07:48.080Z,29.20
2019-02-21T05:10:16.886Z,30.57
2019-02-21T05:12:45.749Z,27.83
2019-02-21T05:15:14.711Z,32.10
2019-02-21T05:17:43.589Z,28.87
2019-02-21T05:20:12.629Z,29.53
2019-02-21T05:22:41.424Z,28.90
2019-02-21T05:25:10.325Z,28.43
2019-02-21T05:28:01.339Z,25.70
2019-02-21T05:30:30.177Z,29.47
2019-02-21T05:33:07.640Z,30.03
2019-02-21T05:35:49.712Z,32.13
2019-02-21T05:38:36.636Z,26.43
2019-02-21T05:41:16.457Z,28.77
2019-02-21T05:44:03.055Z,27.00
2019-02-21T05:46:52.604Z,31.00
2019-02-21T05:49:33.470Z,27.30
2019-02-21T05:52:15.774Z,26.77
2019-02-21T05:54:57.280Z,28.60
2019-02-21T05:57:43.879Z,30.20
2019-02-21T06:00:19.487Z,31.43
2019-02-21T06:02:54.470Z,28.70
2019-02-21T06:05:29.049Z,34.37
2019-02-21T06:08:16.987Z,29.00
2019-02-21T06:10:55.350Z,29.30
2019-02-21T06:13:46.535Z,30.33
2019-02-21T06:16:37.334Z,32.00
2019-02-21T06:19:31.810Z,29.37
2019-02-21T06:22:49.995Z,28.90
2019-02-21T06:25:24.392Z,29.00
2019-02-21T06:28:04.057Z,29.10
2019-02-21T06:30:39.688Z,30.57
2019-02-21T06:33:19.379Z,31.10
2019-02-21T06:35:48.346Z,32.60
2019-02-21T06:38:17.230Z,31.50
2019-02-21T06:40:47.070Z,33.83
2019-02-21T06:43:16.067Z,32.70
2019-02-21T06:45:44.970Z,33.63
2019-02-21T06:48:14.003Z,31.60
2019-02-21T06:50:42.904Z,30.80
2019-02-21T06:53:30.932Z,32.03
2019-02-21T06:55:59.785Z,34.67
2019-02-21T06:58:28.639Z,30.60
2019-02-21T07:00:57.498Z,28.73
2019-02-21T07:03:28.918Z,32.70
2019-02-21T07:05:57.052Z,30.57
2019-02-21T07:08:25.872Z,35.10
2019-02-21T07:11:05.407Z,35.27
2019-02-21T07:13:27.019Z,29.10
2019-02-21T07:16:15.345Z,36.63
2019-02-21T07:18:44.162Z,34.17
2019-02-21T07:21:13.397Z,40.63
2019-02-21T07:23:43.757Z,39.07
2019-02-21T07:26:15.842Z,32.90
2019-02-21T07:28:44.713Z,38.13
2019-02-21T07:31:13.621Z,40.23
2019-02-21T07:33:42.496Z,36.83
2019-02-21T07:36:11.407Z,40.83
2019-02-21T07:38:40.242Z,36.40
2019-02-21T07:41:09.620Z,39.40
2019-02-21T07:43:38.988Z,39.40
2019-02-21T07:46:07.851Z,43.90
2019-02-21T07:48:36.728Z,41.10
2019-02-21T07:51:05.695Z,41.87
2019-02-21T07:53:34.646Z,35.80
2019-02-21T07:56:03.625Z,35.90
2019-02-21T07:58:32.518Z,36.70
2019-02-21T08:01:01.382Z,45.33
2019-02-21T08:03:43.100Z,39.97
2019-02-21T08:06:01.064Z,41.93
2019-02-21T08:08:32.399Z,37.17
2019-02-21T08:11:00.703Z,38.80
2019-02-21T08:13:29.698Z,39.60
2019-02-21T08:15:58.633Z,42.50
2019-02-21T08:18:27.561Z,37.40
2019-02-21T08:20:56.396Z,38.23
2019-02-21T08:23:25.307Z,38.10
2019-02-21T08:25:54.242Z,36.87
2019-02-21T08:28:23.285Z,39.97
2019-02-21T08:30:52.182Z,38.27
2019-02-21T08:33:29.428Z,39.77
2019-02-21T08:35:58.274Z,36.90
2019-02-21T08:38:27.095Z,37.60
2019-02-21T08:40:57.141Z,39.03
2019-02-21T08:43:26.378Z,42.97
2019-02-21T08:45:57.475Z,41.13
2019-02-21T08:48:25.993Z,38.37
2019-02-21T08:50:54.854Z,48.03
2019-02-21T08:53:23.867Z,43.00
2019-02-21T08:55:52.873Z,36.00
2019-02-21T08:58:21.829Z,41.53
2019-02-21T09:00:50.820Z,43.87
2019-02-21T09:03:19.635Z,40.90
2019-02-21T09:05:48.525Z,41.50
2019-02-21T09:08:17.417Z,35.60
2019-02-21T09:10:46.259Z,35.83
2019-02-21T09:13:15.107Z,44.13
2019-02-21T09:15:46.442Z,38.23
2019-02-21T09:18:14.759Z,35.50
2019-02-21T09:20:43.707Z,43.87
2019-02-21T09:23:15.526Z,40.40
2019-02-21T09:25:43.205Z,41.30
2019-02-21T09:28:11.998Z,42.77
2019-02-21T09:30:40.826Z,40.37
2019-02-21T09:33:16.978Z,44.60
2019-02-21T09:35:40.742Z,44.47
2019-02-21T09:38:09.734Z,42.60
2019-02-21T09:40:38.650Z,35.70
2019-02-21T09:43:07.793Z,52.67
2019-02-21T09:45:36.623Z,39.73
2019-02-21T09:48:05.506Z,38.93
2019-02-21T09:50:34.423Z,43.43
2019-02-21T09:53:03.312Z,41.27
2019-02-21T09:55:32.229Z,41.10
2019-02-21T09:58:01.124Z,38.87
2019-02-21T10:00:30.012Z,40.10
2019-02-21T10:02:58.954Z,45.33
2019-02-21T10:05:27.801Z,36.30
2019-02-21T10:07:56.674Z,46.30
2019-02-21T10:10:25.594Z,38.63
2019-02-21T10:12:54.435Z,37.90
2019-02-21T10:15:23.516Z,42.03
2019-02-21T10:17:52.339Z,41.87
2019-02-21T10:20:21.322Z,36.13
2019-02-21T10:22:50.229Z,45.93
2019-02-21T10:25:23.109Z,49.70
2019-02-21T10:27:52.181Z,35.77
2019-02-21T10:30:21.978Z,42.87
2019-02-21T10:32:51.074Z,39.03
2019-02-21T10:35:20.357Z,39.40
2019-02-21T10:37:49.211Z,40.77
2019-02-21T10:40:18.407Z,37.73
2019-02-21T10:42:47.285Z,38.17
2019-02-21T10:45:17.366Z,42.90
2019-02-21T10:47:46.193Z,37.30
2019-02-21T10:50:16.910Z,40.20
2019-02-21T10:52:45.937Z,38.10
2019-02-21T10:55:15.382Z,37.00
2019-02-21T10:57:45.556Z,40.47
2019-02-21T11:00:20.125Z,44.30
2019-02-21T11:02:49.218Z,41.73
2019-02-21T11:05:18.266Z,47.80
2019-02-21T11:07:47.366Z,44.77
2019-02-21T11:10:19.308Z,48.07
2019-02-21T11:12:48.489Z,38.30
2019-02-21T11:15:17.766Z,39.57
2019-02-21T11:17:46.622Z,36.30
2019-02-21T11:20:16.574Z,38.30
2019-02-21T11:22:45.691Z,41.30
2019-02-21T11:25:14.743Z,37.77
2019-02-21T11:27:43.722Z,28.00
2019-02-21T11:30:16.753Z,33.80
2019-02-21T11:32:45.674Z,32.90
2019-02-21T11:35:14.939Z,34.97
2019-02-21T11:37:46.889Z,40.57
2019-02-21T11:40:15.505Z,31.40
2019-02-21T11:42:44.593Z,29.13
2019-02-21T11:45:15.038Z,34.90
2019-02-21T11:47:43.989Z,28.37
2019-02-21T11:50:14.554Z,35.93
2019-02-21T11:52:43.505Z,28.87
2019-02-21T11:55:14.809Z,27.67
2019-02-21T11:57:43.721Z,31.40
2019-02-21T12:00:15.692Z,31.67
2019-02-21T12:02:44.745Z,31.03
2019-02-21T12:05:17.451Z,28.73
2019-02-21T12:07:44.131Z,32.23
2019-02-21T12:10:13.089Z,28.10
2019-02-21T12:12:42.507Z,30.77
2019-02-21T12:15:11.601Z,27.60
2019-02-21T12:17:42.720Z,28.50
2019-02-21T12:20:12.296Z,24.87
2019-02-21T12:22:41.206Z,26.77
2019-02-21T12:25:11.523Z,30.50
2019-02-21T12:27:40.458Z,28.57
2019-02-21T12:30:11.449Z,27.73
2019-02-21T12:32:40.524Z,30.67
2019-02-21T12:35:09.550Z,29.50
2019-02-21T12:37:38.517Z,33.27
2019-02-21T12:40:09.038Z,24.63
2019-02-21T12:42:38.028Z,27.43
2019-02-21T12:45:08.875Z,24.23
2019-02-21T12:47:49.044Z,20.57
2019-02-21T12:50:09.281Z,21.63
2019-02-21T12:52:38.101Z,23.40
2019-02-21T12:55:07.953Z,29.33
2019-02-21T12:57:36.930Z,21.97
2019-02-21T13:00:07.788Z,21.27
2019-02-21T13:02:36.974Z,23.77
2019-02-21T13:05:06.268Z,26.23
2019-02-21T13:07:35.149Z,23.00
2019-02-21T13:10:04.718Z,28.83
2019-02-21T13:12:33.630Z,22.50
2019-02-21T13:15:02.550Z,24.87
2019-02-21T13:17:31.571Z,24.17
2019-02-21T13:20:00.435Z,25.13
2019-02-21T13:22:29.526Z,23.47
2019-02-21T13:24:58.383Z,24.33
2019-02-21T13:27:27.216Z,22.83
2019-02-21T13:29:56.058Z,22.60
2019-02-21T13:32:24.894Z,23.63
2019-02-21T13:34:53.721Z,26.63
2019-02-21T13:37:28.929Z,23.53
2019-02-21T13:39:53.189Z,31.37
2019-02-21T13:42:22.013Z,19.80
2019-02-21T13:44:50.929Z,22.77
2019-02-21T13:47:19.754Z,25.73
2019-02-21T13:49:48.573Z,22.87
2019-02-21T13:52:17.437Z,25.70
2019-02-21T13:54:46.267Z,25.20
2019-02-21T13:57:15.155Z,24.90
2019-02-21T13:59:43.989Z,23.50
2019-02-21T14:02:15.256Z,27.40
2019-02-21T14:04:43.369Z,30.03
2019-02-21T14:07:12.264Z,23.70
2019-02-21T14:09:41.111Z,22.50
2019-02-21T14:12:10.005Z,24.30
2019-02-21T14:14:38.937Z,24.17
2019-02-21T14:17:07.849Z,28.40
2019-02-21T14:19:36.676Z,27.40
2019-02-21T14:22:05.613Z,26.13
2019-02-21T14:24:37.192Z,32.10
2019-02-21T14:27:05.230Z,30.43
2019-02-21T14:29:39.218Z,30.40
2019-02-21T14:32:04.827Z,27.60
2019-02-21T14:34:33.727Z,31.93
2019-02-21T14:37:02.834Z,32.10
2019-02-21T14:39:31.683Z,33.13
2019-02-21T14:42:00.504Z,28.87
2019-02-21T14:44:29.398Z,29.20
2019-02-21T14:46:58.254Z,31.30
2019-02-21T14:49:27.067Z,28.10
2019-02-21T14:51:55.983Z,34.37
2019-02-21T14:54:24.798Z,32.93
2019-02-21T14:56:53.734Z,32.80
2019-02-21T14:59:22.636Z,30.07
2019-02-21T15:01:51.567Z,28.20
2019-02-21T15:04:20.420Z,35.43
2019-02-21T15:06:49.323Z,32.40
2019-02-21T15:09:18.202Z,39.40
2019-02-21T15:11:47.089Z,34.47
2019-02-21T15:14:15.934Z,35.50
2019-02-21T15:16:44.791Z,31.37
2019-02-21T15:19:13.706Z,32.90
2019-02-21T15:21:42.663Z,36.80
2019-02-21T15:24:13.115Z,37.40
2019-02-21T15:26:42.343Z,31.50
2019-02-21T15:29:11.178Z,29.97
2019-02-21T15:31:40.005Z,30.80
2019-02-21T15:34:08.918Z,31.47
2019-02-21T15:36:38.704Z,34.70
2019-02-21T15:39:09.310Z,27.10
2019-02-21T15:41:38.206Z,26.13
2019-02-21T15:44:07.122Z,32.00
2019-02-21T15:46:36.182Z,32.33
2019-02-21T15:49:05.945Z,27.60
2019-02-21T15:51:34.802Z,27.77
2019-02-21T15:54:03.710Z,31.00
2019-02-21T15:56:32.692Z,29.10
2019-02-21T15:59:01.596Z,29.97
2019-02-21T16:01:30.469Z,31.43
2019-02-21T16:03:59.294Z,25.53
2019-02-21T16:06:28.196Z,28.53
2019-02-21T16:08:57.086Z,28.00
2019-02-21T16:11:25.917Z,27.90
2019-02-21T16:14:03.157Z,30.70
2019-02-21T16:16:25.641Z,28.60
2019-02-21T16:18:54.755Z,30.10
2019-02-21T16:21:23.700Z,29.40
2019-02-21T16:23:52.576Z,28.90
2019-02-21T16:26:21.594Z,29.60
2019-02-21T16:28:50.525Z,31.53
2019-02-21T16:31:19.362Z,31.03
2019-02-21T16:33:48.199Z,28.77
2019-02-21T16:36:17.093Z,31.47
2019-02-21T16:38:45.949Z,29.80
2019-02-21T16:41:14.821Z,29.17
2019-02-21T16:43:43.657Z,31.63
2019-02-21T16:46:12.622Z,30.63
2019-02-21T16:48:41.427Z,28.63
2019-02-21T16:51:10.265Z,26.70
2019-02-21T16:53:39.182Z,31.00
2019-02-21T16:56:08.098Z,25.10
2019-02-21T16:58:36.990Z,29.40
2019-02-21T17:01:05.886Z,31.40
2019-02-21T17:03:34.885Z,26.03
2019-02-21T17:06:03.839Z,30.17
2019-02-21T17:08:32.692Z,31.50
2019-02-21T17:11:01.585Z,34.57
2019-02-21T17:13:30.627Z,26.90
2019-02-21T17:16:01.473Z,28.37
2019-02-21T17:18:30.166Z,29.67
2019-02-21T17:20:59.090Z,27.60
2019-02-21T17:23:28.106Z,29.90
2019-02-21T17:25:56.954Z,29.23
2019-02-21T17:28:25.790Z,27.23
2019-02-21T17:30:54.621Z,29.80
2019-02-21T17:33:23.640Z,27.63
2019-02-21T17:35:52.653Z,30.63
2019-02-21T17:38:21.690Z,28.70
2019-02-21T17:40:50.590Z,34.50
2019-02-21T17:43:19.424Z,33.83
2019-02-21T17:45:48.324Z,27.67
2019-02-21T17:48:17.222Z,28.43
2019-02-21T17:50:46.024Z,28.60
2019-02-21T17:53:14.995Z,34.57
2019-02-21T17:55:44.111Z,28.33
2019-02-21T17:58:13.118Z,34.10
2019-02-21T18:00:41.941Z,29.07
2019-02-21T18:03:10.856Z,38.27
2019-02-21T18:05:39.773Z,31.50
2019-02-21T18:08:08.793Z,40.33
2019-02-21T18:10:37.806Z,37.30
2019-02-21T18:13:06.834Z,35.63
2019-02-21T18:15:35.856Z,33.83
2019-02-21T18:18:04.787Z,34.43
2019-02-21T18:20:33.610Z,35.70
2019-02-21T18:23:02.623Z,39.17
2019-02-21T18:25:35.401Z,33.47
2019-02-21T18:28:04.678Z,41.50
2019-02-21T18:30:33.626Z,33.27
2019-02-21T18:33:02.605Z,43.17
2019-02-21T18:35:31.604Z,36.30
2019-02-21T18:38:00.665Z,40.70
2019-02-21T18:40:29.781Z,35.00
2019-02-21T18:42:58.680Z,33.60
2019-02-21T18:45:27.775Z,30.43
2019-02-21T18:47:56.630Z,30.63
2019-02-21T18:50:25.560Z,34.67
2019-02-21T18:52:54.467Z,30.13
2019-02-21T18:55:23.548Z,36.10
2019-02-21T18:57:52.442Z,40.57
2019-02-21T19:00:22.426Z,32.50
2019-02-21T19:02:51.639Z,32.90
2019-02-21T19:05:20.594Z,39.67
2019-02-21T19:07:58.494Z,37.63
2019-02-21T19:10:20.436Z,35.00
2019-02-21T19:12:49.558Z,32.90
2019-02-21T19:15:18.484Z,37.30
2019-02-21T19:17:47.369Z,36.07
2019-02-21T19:20:16.445Z,36.00
2019-02-21T19:22:45.310Z,36.87
2019-02-21T19:25:14.303Z,39.33
2019-02-21T19:27:43.262Z,38.87
2019-02-21T19:30:18.764Z,37.97
2019-02-21T19:32:47.756Z,35.43
2019-02-21T19:35:17.106Z,35.23
2019-02-21T19:37:46.086Z,36.50
2019-02-21T19:40:15.844Z,37.30
2019-02-21T19:42:44.763Z,31.93
2019-02-21T19:45:13.629Z,43.80
2019-02-21T19:47:42.610Z,36.43
2019-02-21T19:50:11.678Z,34.13
2019-02-21T19:52:40.585Z,37.43
2019-02-21T19:55:10.019Z,33.00
2019-02-21T19:57:38.990Z,38.10
2019-02-21T20:00:10.573Z,35.57
2019-02-21T20:02:39.421Z,40.20
2019-02-21T20:05:08.307Z,33.63
2019-02-21T20:07:37.257Z,44.57
2019-02-21T20:10:06.303Z,34.27
2019-02-21T20:12:35.434Z,36.70
2019-02-21T20:15:04.603Z,38.27
2019-02-21T20:17:33.558Z,38.70
2019-02-21T20:20:02.591Z,38.80
2019-02-21T20:22:31.584Z,35.73
2019-02-21T20:25:01.810Z,35.10
2019-02-21T20:27:30.799Z,33.47
2019-02-21T20:29:59.702Z,31.87
2019-02-21T20:32:28.632Z,30.60
2019-02-21T20:34:57.593Z,31.03
2019-02-21T20:37:26.398Z,28.03
2019-02-21T20:39:55.381Z,39.00
2019-02-21T20:42:24.335Z,32.50
2019-02-21T20:44:53.362Z,37.60
2019-02-21T20:47:22.367Z,33.90
2019-02-21T20:49:51.198Z,32.23
2019-02-21T20:52:20.275Z,36.50
2019-02-21T20:54:49.193Z,31.37
2019-02-21T20:57:18.013Z,32.50
2019-02-21T20:59:46.910Z,30.43
2019-02-21T21:02:15.902Z,31.50
2019-02-21T21:04:44.735Z,32.90
2019-02-21T21:07:24.599Z,35.83
2019-02-21T21:09:44.332Z,34.60
2019-02-21T21:12:13.253Z,31.43
2019-02-21T21:14:42.070Z,33.53
2019-02-21T21:17:10.983Z,32.17
2019-02-21T21:19:39.871Z,33.10
2019-02-21T21:22:08.761Z,42.13
2019-02-21T21:24:37.590Z,37.77
2019-02-21T21:27:06.486Z,37.97
2019-02-21T21:29:35.310Z,33.43
2019-02-21T21:32:04.223Z,32.00
2019-02-21T21:34:33.191Z,39.07
2019-02-21T21:37:02.030Z,29.33
2019-02-21T21:39:31.018Z,32.20
2019-02-21T21:41:59.980Z,31.20
2019-02-21T21:44:28.799Z,35.47
2019-02-21T21:46:57.697Z,37.07
2019-02-21T21:49:26.506Z,28.90
2019-02-21T21:51:55.424Z,31.43
2019-02-21T21:54:24.377Z,32.03
2019-02-21T21:56:53.377Z,31.30
2019-02-21T21:59:22.218Z,42.73
2019-02-21T22:01:51.041Z,38.23
2019-02-21T22:04:21.142Z,31.30
2019-02-21T22:06:50.128Z,28.43
2019-02-21T22:09:19.517Z,33.27
2019-02-21T22:11:48.309Z,30.33
2019-02-21T22:14:17.228Z,36.57
2019-02-21T22:16:46.052Z,35.37
2019-02-21T22:19:14.870Z,37.50
2019-02-21T22:21:43.773Z,33.13
2019-02-21T22:24:12.578Z,35.40
2019-02-21T22:26:41.422Z,33.23
2019-02-21T22:29:10.328Z,31.50
2019-02-21T22:31:39.217Z,31.77
2019-02-21T22:34:08.148Z,35.43
2019-02-21T22:36:37.111Z,37.23
2019-02-21T22:39:15.872Z,32.03
2019-02-21T22:41:38.438Z,38.87
2019-02-21T22:44:07.338Z,37.33
2019-02-21T22:46:36.167Z,44.27
2019-02-21T22:49:04.998Z,38.37
2019-02-21T22:51:33.837Z,35.60
2019-02-21T22:54:02.677Z,38.33
2019-02-21T22:56:31.495Z,44.03
2019-02-21T22:59:00.342Z,34.30
2019-02-21T23:01:38.122Z,39.90
2019-02-21T23:04:36.148Z,34.70
2019-02-21T23:07:35.707Z,39.30
2019-02-21T23:10:04.708Z,38.17
2019-02-21T23:12:33.602Z,45.80
2019-02-21T23:15:02.499Z,33.07
2019-02-21T23:17:31.361Z,30.63
2019-02-21T23:20:00.368Z,36.03
2019-02-21T23:22:29.423Z,36.70
2019-02-21T23:24:58.219Z,34.63
2019-02-21T23:27:27.118Z,40.73
2019-02-21T23:29:56.005Z,41.70
2019-02-21T23:32:24.903Z,37.80
2019-02-21T23:34:55.389Z,37.40
2019-02-21T23:37:24.269Z,40.43
2019-02-21T23:39:53.099Z,39.03
2019-02-21T23:42:22.098Z,41.23
2019-02-21T23:44:51.012Z,45.63
2019-02-21T23:47:19.950Z,44.10
2019-02-21T23:49:48.795Z,41.10
2019-02-21T23:52:17.730Z,46.77
2019-02-21T23:54:46.744Z,52.87
2019-02-21T23:57:15.604Z,42.90
2019-02-21T23:59:44.507Z,49.07
